createdAt,value
2018-03-06T00:00:28.074Z,68.30
2018-03-06T00:02:56.439Z,67.80
2018-03-06T00:05:24.082Z,67.70
2018-03-06T00:07:52.464Z,68.00
2018-03-06T00:10:20.818Z,68.00
2018-03-06T00:12:48.466Z,67.90
2018-03-06T00:15:16.109Z,68.00
2018-03-06T00:17:43.779Z,68.20
2018-03-06T00:20:11.403Z,68.50
2018-03-06T00:22:39.000Z,68.60
2018-03-06T00:25:06.625Z,68.80
2018-03-06T00:27:34.270Z,68.90
2018-03-06T00:30:02.651Z,68.80
2018-03-06T00:32:30.251Z,68.80
2018-03-06T00:34:57.879Z,69.40
2018-03-06T00:37:26.246Z,70.10
2018-03-06T00:39:53.912Z,70.00
2018-03-06T00:42:21.549Z,69.50
2018-03-06T00:44:49.182Z,69.80
2018-03-06T00:47:16.799Z,69.90
2018-03-06T00:49:44.458Z,69.80
2018-03-06T00:52:12.865Z,70.80
2018-03-06T00:54:40.467Z,70.30
2018-03-06T00:57:08.114Z,70.20
2018-03-06T00:59:35.719Z,69.80
2018-03-06T01:02:03.388Z,70.20
2018-03-06T01:04:31.793Z,71.00
2018-03-06T01:06:59.435Z,70.30
2018-03-06T01:09:27.808Z,70.70
2018-03-06T01:11:56.227Z,70.80
2018-03-06T01:14:23.884Z,70.70
2018-03-06T01:16:51.498Z,70.40
2018-03-06T01:19:19.145Z,70.00
2018-03-06T01:21:46.787Z,70.20
2018-03-06T01:24:14.462Z,69.70
2018-03-06T01:26:42.086Z,69.70
2018-03-06T01:29:09.693Z,69.70
2018-03-06T01:31:37.360Z,69.90
2018-03-06T01:34:04.970Z,69.60
2018-03-06T01:36:32.607Z,69.70
2018-03-06T01:39:00.259Z,69.50
2018-03-06T01:41:27.896Z,69.60
2018-03-06T01:43:55.541Z,69.50
2018-03-06T01:46:23.203Z,69.90
2018-03-06T01:48:50.870Z,70.20
2018-03-06T01:51:18.487Z,70.10
2018-03-06T01:53:46.905Z,70.90
2018-03-06T01:56:14.515Z,70.90
2018-03-06T01:58:42.181Z,71.40
2018-03-06T02:01:09.796Z,71.30
2018-03-06T02:03:37.440Z,71.60
2018-03-06T02:06:05.075Z,71.30
2018-03-06T02:08:32.685Z,71.60
2018-03-06T02:11:02.228Z,71.20
2018-03-06T02:13:39.333Z,71.00
2018-03-06T02:16:17.000Z,71.00
2018-03-06T02:18:46.884Z,71.00
2018-03-06T02:21:16.934Z,71.30
2018-03-06T02:23:47.239Z,71.60
2018-03-06T02:26:16.888Z,71.60
2018-03-06T02:28:47.316Z,71.60
2018-03-06T02:31:17.010Z,71.90
2018-03-06T02:33:48.406Z,71.80
2018-03-06T02:36:18.104Z,71.90
2018-03-06T02:38:50.074Z,72.00
2018-03-06T02:41:19.773Z,71.70
2018-03-06T02:43:49.687Z,72.30
2018-03-06T02:46:19.447Z,72.50
2018-03-06T02:48:50.098Z,72.20
2018-03-06T02:51:19.160Z,72.20
2018-03-06T02:53:48.675Z,72.40
2018-03-06T02:56:18.800Z,72.40
2018-03-06T02:58:52.691Z,72.40
2018-03-06T03:01:22.457Z,72.20
2018-03-06T03:03:52.451Z,72.10
2018-03-06T03:06:29.652Z,72.30
2018-03-06T03:09:00.418Z,73.00
2018-03-06T03:11:31.879Z,72.90
2018-03-06T03:14:02.747Z,73.70
2018-03-06T03:16:34.255Z,73.70
2018-03-06T03:19:04.215Z,73.60
2018-03-06T03:21:35.763Z,74.10
2018-03-06T03:24:08.072Z,74.20
2018-03-06T03:26:38.852Z,74.20
2018-03-06T03:29:10.335Z,75.10
2018-03-06T03:31:42.089Z,74.90
2018-03-06T03:34:12.152Z,74.90
2018-03-06T03:36:42.831Z,74.40
2018-03-06T03:39:13.769Z,74.30
2018-03-06T03:41:43.897Z,74.20
2018-03-06T03:44:13.787Z,74.20
2018-03-06T03:46:44.300Z,74.10
2018-03-06T03:49:17.861Z,74.30
2018-03-06T03:51:46.964Z,74.20
2018-03-06T03:54:16.820Z,74.40
2018-03-06T03:56:46.833Z,74.60
2018-03-06T03:59:16.540Z,74.70
2018-03-06T04:01:47.033Z,75.20
2018-03-06T04:04:16.831Z,75.10
2018-03-06T04:06:46.089Z,75.10
2018-03-06T04:09:16.413Z,75.30
2018-03-06T04:11:46.760Z,74.80
2018-03-06T04:14:16.061Z,74.80
2018-03-06T04:16:46.091Z,75.30
2018-03-06T04:19:15.097Z,75.20
2018-03-06T04:21:44.279Z,75.60
2018-03-06T04:24:13.903Z,76.20
2018-03-06T04:26:42.537Z,75.90
2018-03-06T04:29:12.360Z,76.40
2018-03-06T04:31:41.719Z,76.40
2018-03-06T04:34:11.175Z,76.80
2018-03-06T04:36:40.445Z,76.50
2018-03-06T04:39:10.163Z,76.50
2018-03-06T04:41:39.448Z,76.50
2018-03-06T04:44:09.838Z,76.40
2018-03-06T04:46:38.267Z,76.30
2018-03-06T04:49:07.276Z,76.20
2018-03-06T04:51:36.565Z,76.60
2018-03-06T04:54:04.913Z,76.60
2018-03-06T04:56:33.860Z,76.70
2018-03-06T04:59:03.548Z,76.70
2018-03-06T05:01:31.240Z,76.70
2018-03-06T05:03:58.831Z,76.80
2018-03-06T05:06:26.510Z,76.70
2018-03-06T05:08:54.143Z,76.80
2018-03-06T05:11:21.755Z,76.70
2018-03-06T05:13:49.398Z,76.90
2018-03-06T05:16:17.039Z,77.10
2018-03-06T05:18:44.725Z,77.20
2018-03-06T05:21:12.366Z,76.90
2018-03-06T05:23:39.987Z,77.10
2018-03-06T05:26:08.378Z,76.60
2018-03-06T05:28:36.023Z,76.60
2018-03-06T05:31:04.399Z,76.90
2018-03-06T05:33:32.813Z,77.40
2018-03-06T05:36:00.415Z,77.40
2018-03-06T05:38:28.009Z,77.20
2018-03-06T05:40:56.430Z,77.10
2018-03-06T05:43:24.031Z,77.10
2018-03-06T05:45:52.430Z,77.00
2018-03-06T05:48:20.850Z,77.10
2018-03-06T05:50:48.504Z,77.00
2018-03-06T05:53:16.154Z,77.40
2018-03-06T05:55:43.746Z,77.90
2018-03-06T05:58:11.355Z,77.90
2018-03-06T06:00:39.766Z,78.30
2018-03-06T06:03:07.368Z,78.30
2018-03-06T06:05:35.036Z,78.60
2018-03-06T06:08:02.662Z,78.40
2018-03-06T06:10:31.066Z,77.50
2018-03-06T06:12:58.709Z,77.50
2018-03-06T06:15:26.350Z,77.40
2018-03-06T06:17:54.734Z,77.20
2018-03-06T06:20:23.151Z,77.20
2018-03-06T06:22:50.727Z,77.20
2018-03-06T06:25:18.372Z,77.00
2018-03-06T06:27:45.957Z,76.80
2018-03-06T06:30:13.587Z,76.90
2018-03-06T06:32:41.247Z,76.70
2018-03-06T06:35:08.846Z,76.50
2018-03-06T06:37:36.432Z,76.40
2018-03-06T06:40:04.829Z,76.60
2018-03-06T06:42:32.421Z,76.60
2018-03-06T06:44:59.999Z,76.50
2018-03-06T06:47:27.610Z,76.40
2018-03-06T06:49:55.202Z,76.40
2018-03-06T06:52:22.815Z,76.10
2018-03-06T06:54:51.212Z,75.50
2018-03-06T06:57:19.544Z,75.10
2018-03-06T06:59:47.172Z,75.10
2018-03-06T07:02:14.740Z,74.90
2018-03-06T07:04:42.351Z,75.10
2018-03-06T07:07:10.707Z,75.00
2018-03-06T07:09:38.335Z,75.00
2018-03-06T07:12:06.757Z,75.40
2018-03-06T07:14:34.389Z,75.40
2018-03-06T07:17:02.052Z,75.00
2018-03-06T07:19:29.639Z,74.10
2018-03-06T07:21:57.243Z,74.30
2018-03-06T07:24:24.835Z,74.10
2018-03-06T07:26:52.463Z,74.80
2018-03-06T07:29:20.801Z,74.10
2018-03-06T07:31:48.432Z,74.10
2018-03-06T07:34:15.997Z,73.90
2018-03-06T07:36:43.607Z,73.80
2018-03-06T07:39:12.018Z,73.70
2018-03-06T07:41:39.594Z,73.70
2018-03-06T07:44:07.262Z,72.10
2018-03-06T07:46:34.863Z,72.00
2018-03-06T07:49:02.452Z,71.50
2018-03-06T07:51:31.116Z,74.10
2018-03-06T07:53:59.523Z,75.20
2018-03-06T07:56:27.096Z,75.00
2018-03-06T07:58:54.744Z,75.50
2018-03-06T08:01:22.358Z,74.30
2018-03-06T08:03:50.057Z,73.00
2018-03-06T08:06:17.777Z,72.30
2018-03-06T08:08:45.504Z,70.90
2018-03-06T08:11:13.242Z,71.20
2018-03-06T08:13:40.853Z,71.80
2018-03-06T08:16:08.501Z,72.20
2018-03-06T08:18:36.885Z,71.70
2018-03-06T08:21:04.462Z,71.80
2018-03-06T08:23:32.091Z,70.80
2018-03-06T08:25:59.713Z,70.10
2018-03-06T08:28:27.311Z,70.30
2018-03-06T08:30:54.930Z,69.20
2018-03-06T08:33:22.523Z,69.30
2018-03-06T08:35:50.903Z,68.20
2018-03-06T08:38:19.260Z,67.20
2018-03-06T08:40:46.882Z,67.30
2018-03-06T08:43:14.646Z,65.90
2018-03-06T08:45:42.217Z,64.60
2018-03-06T08:48:09.798Z,64.60
2018-03-06T08:50:37.432Z,65.20
2018-03-06T08:53:05.078Z,62.40
2018-03-06T08:55:32.790Z,59.40
2018-03-06T08:58:00.419Z,58.20
2018-03-06T09:00:28.096Z,58.20
2018-03-06T09:02:56.920Z,58.00
2018-03-06T09:05:24.546Z,57.40
2018-03-06T09:07:52.187Z,55.70
2018-03-06T09:10:19.770Z,55.50
2018-03-06T09:12:47.418Z,55.80
2018-03-06T09:15:14.996Z,57.10
2018-03-06T09:17:42.657Z,54.00
2018-03-06T09:20:10.337Z,51.30
2018-03-06T09:22:37.947Z,50.80
2018-03-06T09:25:05.638Z,50.20
2018-03-06T09:27:33.238Z,49.70
2018-03-06T09:30:00.857Z,50.00
2018-03-06T09:32:28.502Z,49.30
2018-03-06T09:34:56.151Z,50.50
2018-03-06T09:37:23.776Z,50.50
2018-03-06T09:39:51.429Z,48.80
2018-03-06T09:42:19.044Z,47.30
2018-03-06T09:44:46.679Z,49.40
2018-03-06T09:47:15.191Z,50.00
2018-03-06T09:49:42.957Z,50.00
2018-03-06T09:52:10.737Z,49.50
2018-03-06T09:54:38.362Z,48.70
2018-03-06T09:57:05.997Z,46.80
2018-03-06T09:59:33.652Z,45.20
2018-03-06T10:02:01.371Z,43.60
2018-03-06T10:04:28.963Z,44.10
2018-03-06T10:06:56.669Z,43.40
2018-03-06T10:09:25.026Z,48.40
2018-03-06T10:11:52.683Z,48.30
2018-03-06T10:14:20.357Z,50.10
2018-03-06T10:16:48.094Z,50.60
2018-03-06T10:19:16.078Z,51.00
2018-03-06T10:21:44.015Z,48.90
2018-03-06T10:24:11.916Z,49.00
2018-03-06T10:26:39.672Z,49.80
2018-03-06T10:29:08.223Z,49.00
2018-03-06T10:31:36.069Z,48.80
2018-03-06T10:34:04.124Z,47.60
2018-03-06T10:36:32.110Z,47.90
2018-03-06T10:39:00.648Z,48.00
2018-03-06T10:41:28.247Z,48.00
2018-03-06T10:43:55.892Z,47.90
2018-03-06T10:46:24.522Z,49.50
2018-03-06T10:49:05.381Z,50.10
2018-03-06T10:51:33.729Z,50.00
2018-03-06T10:54:01.360Z,49.80
2018-03-06T10:56:29.019Z,49.00
2018-03-06T10:58:56.677Z,48.90
2018-03-06T11:01:25.389Z,49.70
2018-03-06T11:03:53.005Z,48.70
2018-03-06T11:06:20.772Z,49.40
2018-03-06T11:08:48.380Z,49.70
2018-03-06T11:11:15.998Z,48.80
2018-03-06T11:13:43.677Z,49.70
2018-03-06T11:16:11.280Z,50.00
2018-03-06T11:18:38.992Z,48.80
2018-03-06T11:21:06.585Z,48.90
2018-03-06T11:23:34.167Z,49.90
2018-03-06T11:26:02.608Z,48.80
2018-03-06T11:28:30.199Z,48.80
2018-03-06T11:30:57.868Z,48.70
2018-03-06T11:33:25.485Z,48.80
2018-03-06T11:35:53.103Z,48.80
2018-03-06T11:38:21.560Z,48.90
2018-03-06T11:40:49.204Z,48.90
2018-03-06T11:43:16.863Z,50.00
2018-03-06T11:45:44.478Z,50.20
2018-03-06T11:48:12.174Z,48.70
2018-03-06T11:50:39.854Z,49.10
2018-03-06T11:53:07.484Z,49.80
2018-03-06T11:55:35.064Z,49.00
2018-03-06T11:58:02.739Z,50.50
2018-03-06T12:00:30.467Z,51.30
2018-03-06T12:02:58.044Z,49.90
2018-03-06T12:05:25.775Z,49.20
2018-03-06T12:07:53.418Z,48.30
2018-03-06T12:10:21.131Z,49.70
2018-03-06T12:12:48.747Z,51.70
2018-03-06T12:15:16.401Z,51.50
2018-03-06T12:17:44.064Z,51.80
2018-03-06T12:20:11.663Z,49.80
2018-03-06T12:22:39.305Z,49.00
2018-03-06T12:25:06.946Z,48.40
2018-03-06T12:27:34.590Z,46.70
2018-03-06T12:30:02.243Z,46.50
2018-03-06T12:32:29.901Z,47.00
2018-03-06T12:34:57.541Z,48.40
2018-03-06T12:37:25.165Z,49.20
2018-03-06T12:39:53.223Z,50.40
2018-03-06T12:42:20.890Z,49.40
2018-03-06T12:44:48.523Z,48.20
2018-03-06T12:47:16.117Z,49.90
2018-03-06T12:49:43.774Z,49.60
2018-03-06T12:52:11.587Z,49.70
2018-03-06T12:54:39.193Z,48.90
2018-03-06T12:57:06.847Z,50.00
2018-03-06T12:59:35.256Z,49.60
2018-03-06T13:02:02.927Z,49.60
2018-03-06T13:04:30.562Z,51.90
2018-03-06T13:06:58.269Z,50.60
2018-03-06T13:09:26.675Z,50.10
2018-03-06T13:11:54.487Z,50.10
2018-03-06T13:14:22.150Z,50.70
2018-03-06T13:16:49.797Z,48.20
2018-03-06T13:19:17.453Z,48.90
2018-03-06T13:21:45.075Z,48.80
2018-03-06T13:24:12.706Z,50.90
2018-03-06T13:26:40.371Z,49.50
2018-03-06T13:29:07.978Z,49.70
2018-03-06T13:31:35.662Z,49.80
2018-03-06T13:34:03.299Z,50.10
2018-03-06T13:36:30.937Z,50.70
2018-03-06T13:38:59.687Z,50.70
2018-03-06T13:41:27.493Z,50.00
2018-03-06T13:43:56.109Z,51.40
2018-03-06T13:46:25.244Z,51.40
2018-03-06T13:48:52.939Z,49.00
2018-03-06T13:51:21.288Z,49.40
2018-03-06T13:53:48.923Z,49.40
2018-03-06T13:56:16.534Z,49.80
2018-03-06T13:58:45.078Z,50.20
2018-03-06T14:01:12.734Z,47.70
2018-03-06T14:03:40.318Z,49.30
2018-03-06T14:06:08.776Z,47.80
2018-03-06T14:08:36.395Z,47.70
2018-03-06T14:11:04.793Z,48.60
2018-03-06T14:13:32.544Z,48.50
2018-03-06T14:16:00.214Z,48.80
2018-03-06T14:18:27.922Z,48.50
2018-03-06T14:20:55.519Z,49.60
2018-03-06T14:23:23.184Z,49.30
2018-03-06T14:25:50.877Z,49.40
2018-03-06T14:28:18.482Z,50.70
2018-03-06T14:30:46.110Z,50.30
2018-03-06T14:33:13.730Z,50.10
2018-03-06T14:35:41.443Z,49.10
2018-03-06T14:38:09.072Z,51.60
2018-03-06T14:40:36.700Z,50.10
2018-03-06T14:43:05.117Z,50.50
2018-03-06T14:45:32.740Z,50.50
2018-03-06T14:48:00.388Z,50.20
2018-03-06T14:50:28.033Z,50.00
2018-03-06T14:52:55.668Z,51.40
2018-03-06T14:55:23.254Z,52.60
2018-03-06T14:57:50.937Z,51.70
2018-03-06T15:00:18.595Z,50.80
2018-03-06T15:02:46.239Z,51.40
2018-03-06T15:05:13.914Z,52.50
2018-03-06T15:07:41.578Z,52.00
2018-03-06T15:10:09.272Z,51.70
2018-03-06T15:12:37.656Z,50.50
2018-03-06T15:15:05.340Z,50.40
2018-03-06T15:17:33.723Z,51.70
2018-03-06T15:20:01.351Z,51.70
2018-03-06T15:22:29.030Z,52.30
2018-03-06T15:24:57.391Z,51.20
2018-03-06T15:27:25.012Z,51.20
2018-03-06T15:29:52.625Z,51.20
2018-03-06T15:32:21.013Z,51.60
2018-03-06T15:34:51.078Z,51.50
2018-03-06T15:37:19.534Z,51.80
2018-03-06T15:39:47.166Z,51.80
2018-03-06T15:42:24.662Z,51.80
2018-03-06T15:44:52.974Z,51.80
2018-03-06T15:47:20.562Z,52.30
2018-03-06T15:49:48.204Z,52.00
2018-03-06T15:52:15.790Z,52.90
2018-03-06T15:54:44.204Z,53.60
2018-03-06T15:57:11.873Z,53.60
2018-03-06T15:59:40.339Z,53.20
2018-03-06T16:02:08.698Z,53.00
2018-03-06T16:04:36.314Z,53.00
2018-03-06T16:07:03.983Z,53.10
2018-03-06T16:09:31.660Z,53.20
2018-03-06T16:11:59.330Z,53.20
2018-03-06T16:14:27.064Z,54.20
2018-03-06T16:16:54.713Z,53.50
2018-03-06T16:19:23.118Z,54.40
2018-03-06T16:21:50.987Z,54.40
2018-03-06T16:24:18.747Z,54.10
2018-03-06T16:26:46.406Z,53.70
2018-03-06T16:29:14.026Z,54.30
2018-03-06T16:31:54.391Z,54.40
2018-03-06T16:34:22.042Z,54.10
2018-03-06T16:36:49.739Z,54.80
2018-03-06T16:39:18.132Z,55.30
2018-03-06T16:41:45.790Z,55.90
2018-03-06T16:44:14.179Z,56.00
2018-03-06T16:46:41.811Z,56.00
2018-03-06T16:49:10.170Z,56.70
2018-03-06T16:51:37.825Z,56.70
2018-03-06T16:54:06.281Z,56.10
2018-03-06T16:56:33.880Z,56.10
2018-03-06T16:59:01.491Z,56.70
2018-03-06T17:01:29.194Z,56.40
2018-03-06T17:03:56.819Z,56.20
2018-03-06T17:06:24.437Z,56.20
2018-03-06T17:08:52.025Z,56.60
2018-03-06T17:11:20.431Z,57.50
2018-03-06T17:13:48.034Z,57.50
2018-03-06T17:16:15.634Z,57.80
2018-03-06T17:18:43.250Z,58.90
2018-03-06T17:21:10.833Z,59.50
2018-03-06T17:23:39.451Z,59.70
2018-03-06T17:26:07.545Z,59.70
2018-03-06T17:28:35.180Z,60.20
2018-03-06T17:31:02.799Z,60.20
2018-03-06T17:33:30.615Z,61.00
2018-03-06T17:35:58.363Z,61.40
2018-03-06T17:38:26.752Z,62.00
2018-03-06T17:40:54.327Z,62.00
2018-03-06T17:43:21.955Z,62.10
2018-03-06T17:45:49.600Z,62.30
2018-03-06T17:48:17.974Z,62.70
2018-03-06T17:50:46.378Z,63.00
2018-03-06T17:53:14.812Z,63.10
2018-03-06T17:55:42.474Z,63.10
2018-03-06T17:58:10.078Z,63.50
2018-03-06T18:00:38.442Z,64.30
2018-03-06T18:03:06.149Z,64.30
2018-03-06T18:05:33.744Z,64.40
2018-03-06T18:08:01.370Z,64.40
2018-03-06T18:10:28.999Z,64.50
2018-03-06T18:12:57.391Z,65.50
2018-03-06T18:15:25.799Z,66.10
2018-03-06T18:17:53.463Z,66.10
2018-03-06T18:20:21.073Z,66.40
2018-03-06T18:22:48.666Z,66.70
2018-03-06T18:25:16.402Z,67.10
2018-03-06T18:27:44.001Z,67.10
2018-03-06T18:30:11.581Z,67.10
2018-03-06T18:32:39.270Z,67.10
2018-03-06T18:35:06.866Z,66.90
2018-03-06T18:37:34.552Z,67.00
2018-03-06T18:40:02.194Z,67.20
2018-03-06T18:42:29.781Z,66.60
2018-03-06T18:44:57.428Z,66.80
2018-03-06T18:47:25.019Z,67.30
2018-03-06T18:50:01.453Z,67.10
2018-03-06T18:52:29.039Z,67.40
2018-03-06T18:54:56.661Z,67.50
2018-03-06T18:57:25.200Z,68.50
2018-03-06T19:00:04.846Z,68.50
2018-03-06T19:02:44.354Z,69.30
2018-03-06T19:05:34.335Z,70.20
2018-03-06T19:08:01.949Z,69.00
2018-03-06T19:10:29.618Z,69.30
2018-03-06T19:12:57.213Z,69.40
2018-03-06T19:15:24.962Z,69.50
2018-03-06T19:17:53.342Z,69.90
2018-03-06T19:20:21.715Z,70.10
2018-03-06T19:22:49.396Z,70.10
2018-03-06T19:25:17.799Z,70.70
2018-03-06T19:27:45.401Z,70.70
2018-03-06T19:30:13.030Z,70.40
2018-03-06T19:32:40.621Z,70.80
2018-03-06T19:35:08.276Z,71.00
2018-03-06T19:37:35.895Z,71.40
2018-03-06T19:40:03.535Z,71.20
2018-03-06T19:42:31.115Z,71.50
2018-03-06T19:45:00.747Z,71.90
2018-03-06T19:47:28.370Z,71.90
2018-03-06T19:49:56.764Z,72.00
2018-03-06T19:52:25.251Z,72.40
2018-03-06T19:54:52.839Z,72.40
2018-03-06T19:57:20.412Z,72.60
2018-03-06T19:59:48.036Z,73.10
2018-03-06T20:02:15.686Z,75.00
2018-03-06T20:04:43.299Z,75.50
2018-03-06T20:07:10.986Z,74.70
2018-03-06T20:09:38.621Z,76.10
2018-03-06T20:12:06.286Z,76.20
2018-03-06T20:14:39.613Z,77.00
2018-03-06T20:17:08.018Z,77.00
2018-03-06T20:19:40.320Z,77.00
2018-03-06T20:22:07.904Z,76.90
2018-03-06T20:24:41.201Z,76.90
2018-03-06T20:27:08.836Z,76.60
2018-03-06T20:29:36.423Z,76.50
2018-03-06T20:32:09.768Z,76.50
2018-03-06T20:34:37.354Z,77.00
2018-03-06T20:37:04.978Z,77.30
2018-03-06T20:39:39.002Z,77.70
2018-03-06T20:42:06.654Z,77.70
2018-03-06T20:44:34.990Z,77.70
2018-03-06T20:47:08.262Z,77.70
2018-03-06T20:49:35.850Z,78.10
2018-03-06T20:52:03.518Z,78.30
2018-03-06T20:54:36.679Z,78.30
2018-03-06T20:57:04.309Z,78.50
2018-03-06T20:59:31.946Z,78.70
2018-03-06T21:02:06.037Z,79.20
2018-03-06T21:04:33.628Z,79.10
2018-03-06T21:07:02.022Z,79.90
2018-03-06T21:09:29.622Z,79.90
2018-03-06T21:11:57.262Z,80.20
2018-03-06T21:14:24.843Z,80.20
2018-03-06T21:16:52.472Z,80.30
2018-03-06T21:19:20.056Z,80.30
2018-03-06T21:21:47.711Z,80.40
2018-03-06T21:24:15.299Z,80.40
2018-03-06T21:26:42.878Z,80.20
2018-03-06T21:29:10.499Z,80.20
2018-03-06T21:31:38.078Z,80.20
2018-03-06T21:34:05.697Z,80.80
2018-03-06T21:36:33.276Z,80.50
2018-03-06T21:39:00.898Z,80.70
2018-03-06T21:41:28.516Z,80.90
2018-03-06T21:43:56.104Z,81.70
2018-03-06T21:46:23.761Z,81.90
2018-03-06T21:48:51.383Z,82.00
2018-03-06T21:51:19.019Z,82.50
2018-03-06T21:53:46.648Z,83.10
2018-03-06T21:56:14.215Z,83.40
2018-03-06T21:58:41.830Z,83.60
2018-03-06T22:01:09.445Z,83.80
2018-03-06T22:03:37.807Z,84.00
2018-03-06T22:06:05.438Z,84.00
2018-03-06T22:08:33.027Z,83.70
2018-03-06T22:11:00.665Z,83.50
2018-03-06T22:13:28.229Z,83.70
2018-03-06T22:15:55.835Z,83.70
2018-03-06T22:18:23.427Z,83.70
2018-03-06T22:20:51.043Z,84.10
2018-03-06T22:23:18.628Z,84.20
2018-03-06T22:25:46.980Z,84.60
2018-03-06T22:28:14.609Z,84.60
2018-03-06T22:30:42.188Z,84.30
2018-03-06T22:33:09.810Z,84.60
2018-03-06T22:35:37.396Z,84.70
2018-03-06T22:38:05.022Z,84.60
2018-03-06T22:40:32.607Z,84.90
2018-03-06T22:43:00.222Z,85.20
2018-03-06T22:45:27.802Z,85.60
2018-03-06T22:47:56.151Z,85.30
2018-03-06T22:50:23.779Z,85.30
2018-03-06T22:52:51.382Z,84.60
2018-03-06T22:55:18.967Z,85.20
2018-03-06T22:57:47.375Z,85.90
2018-03-06T23:00:15.045Z,85.80
2018-03-06T23:02:42.640Z,86.10
2018-03-06T23:05:10.250Z,86.90
2018-03-06T23:07:37.834Z,87.10
2018-03-06T23:10:05.484Z,87.20
2018-03-06T23:12:33.083Z,87.60
2018-03-06T23:15:00.716Z,87.60
2018-03-06T23:17:28.340Z,87.70
2018-03-06T23:19:56.775Z,87.80
2018-03-06T23:22:24.344Z,87.80
2018-03-06T23:24:51.997Z,88.40
2018-03-06T23:27:19.591Z,88.30
2018-03-06T23:29:47.235Z,88.40
2018-03-06T23:32:14.890Z,88.10
2018-03-06T23:34:42.534Z,88.70
2018-03-06T23:37:10.285Z,88.60
2018-03-06T23:39:37.982Z,88.60
2018-03-06T23:42:05.659Z,88.50
2018-03-06T23:44:33.322Z,89.00
2018-03-06T23:47:01.093Z,89.10
2018-03-06T23:49:28.778Z,89.20
2018-03-06T23:51:57.196Z,89.20
2018-03-06T23:54:24.826Z,89.20
2018-03-06T23:56:52.502Z,89.80
2018-03-06T23:59:20.142Z,90.10
